Time;durP1;ratioP1;P1;durP2;ratioP2;P2;SDS_P1;SDS_P2;PMS_P1;PMS_P2;Temp;Humidity;BMP_temperature;BMP_pressure;BME280_temperature;BME280_humidity;BME280_pressure;Samples;Min_cycle;Max_cycle;Signal;HPM_P1;HPM_P2
2021/09/08 00:00:40;;;;;;;;;;;;;;;21.51;56.40;101576.91;2091469;28;787;-61
2021/09/08 00:01:40;;;;;;;;;;;;;;;21.51;56.20;101570.66;2091080;28;949;-62
2021/09/08 00:02:41;;;;;;;;;;;;;;;21.50;56.09;101577.84;2091441;28;977;-61
2021/09/08 00:03:41;;;;;;;;;;;;;;;21.52;56.86;101575.13;2091470;28;929;-61
2021/09/08 00:04:41;;;;;;;;;;;;;;;21.52;56.42;101577.81;2091287;28;763;-61
2021/09/08 00:05:41;;;;;;;;;;;;;;;21.49;56.80;101573.38;2091442;28;854;-61
2021/09/08 00:06:41;;;;;;;;;;;;;;;21.50;56.08;101571.56;2091295;28;921;-61
2021/09/08 00:07:41;;;;;;;;;;;;;;;21.50;56.05;101572.44;2091325;28;940;-61
2021/09/08 00:08:42;;;;;;;;;;;;;;;21.51;56.54;101576.03;2091169;28;1906;-61
2021/09/08 00:09:42;;;;;;;;;;;;;;;21.50;56.16;101572.44;2091329;28;1089;-60
2021/09/08 00:10:42;;;;;;;;;;;;;;;21.48;55.86;101569.81;2091446;28;882;-61
2021/09/08 00:11:42;;;;;;;;;;;;;;;21.48;56.73;101567.09;2091249;28;1100;-60
2021/09/08 00:12:42;;;;;;;;;;;;;;;21.48;56.08;101568.94;2091305;28;985;-61
2021/09/08 00:13:42;;;;;;;;;;;;;;;21.50;55.88;101566.19;2091380;28;1024;-61
2021/09/08 00:14:43;;;;;;;;;;;;;;;21.50;55.88;101563.50;2091330;28;983;-61
2021/09/08 00:15:43;;;;;;;;;;;;;;;21.49;56.18;101565.28;2091239;28;1435;-61
2021/09/08 00:16:43;;;;;;;;;;;;;;;21.48;56.19;101559.03;2091432;28;859;-61
2021/09/08 00:17:43;;;;;;;;;;;;;;;21.49;56.46;101557.19;2091274;28;878;-61
2021/09/08 00:18:43;;;;;;;;;;;;;;;21.46;56.09;101550.09;2091351;28;965;-60
2021/09/08 00:19:44;;;;;;;;;;;;;;;21.49;56.38;101559.88;2091371;28;846;-61
2021/09/08 00:20:44;;;;;;;;;;;;;;;21.48;56.17;101558.16;2091375;28;973;-61
2021/09/08 00:21:44;;;;;;;;;;;;;;;21.48;56.14;101569.81;2091370;28;1036;-60
2021/09/08 00:22:44;;;;;;;;;;;;;;;21.50;55.89;101564.34;2091421;28;847;-60
2021/09/08 00:23:45;;;;;;;;;;;;;;;21.49;55.98;101565.28;2090973;28;985;-61
2021/09/08 00:24:45;;;;;;;;;;;;;;;21.49;55.99;101565.28;2091360;28;791;-60
2021/09/08 00:25:45;;;;;;;;;;;;;;;21.50;56.57;101567.06;2091393;28;887;-60
2021/09/08 00:26:45;;;;;;;;;;;;;;;21.48;56.29;101569.81;2091364;28;973;-61
2021/09/08 00:27:45;;;;;;;;;;;;;;;21.50;56.26;101563.50;2091327;28;1005;-60
2021/09/08 00:28:45;;;;;;;;;;;;;;;21.49;56.05;101565.28;2091285;28;1886;-61
2021/09/08 00:29:46;;;;;;;;;;;;;;;21.50;56.64;101566.19;2091354;28;915;-60
2021/09/08 00:30:46;;;;;;;;;;;;;;;21.50;56.29;101558.09;2091327;28;1195;-61
2021/09/08 00:31:46;;;;;;;;;;;;;;;21.49;56.49;101557.19;2091337;28;798;-60
2021/09/08 00:32:46;;;;;;;;;;;;;;;21.48;56.29;101558.16;2091365;28;1037;-60
2021/09/08 00:33:46;;;;;;;;;;;;;;;21.48;56.61;101561.72;2090988;28;831;-60
2021/09/08 00:34:46;;;;;;;;;;;;;;;21.50;56.32;101555.41;2091359;28;882;-61
2021/09/08 00:35:48;;;;;;;;;;;;;;;21.48;56.29;101559.03;2091214;28;1192;-61
2021/09/08 00:36:48;;;;;;;;;;;;;;;21.49;55.93;101551.81;2091288;28;791;-61
2021/09/08 00:37:48;;;;;;;;;;;;;;;21.47;56.30;101553.69;2091309;28;977;-60
2021/09/08 00:38:49;;;;;;;;;;;;;;;21.47;56.50;101549.16;2091077;28;988;-60
2021/09/08 00:39:49;;;;;;;;;;;;;;;21.50;56.03;101550.00;2091118;28;806;-61
2021/09/08 00:40:49;;;;;;;;;;;;;;;21.49;56.48;101554.50;2091197;28;1255;-61
2021/09/08 00:41:49;;;;;;;;;;;;;;;21.48;55.56;101548.25;2091280;28;1011;-61
2021/09/08 00:42:49;;;;;;;;;;;;;;;21.47;56.13;101548.28;2091281;28;784;-60
2021/09/08 00:43:50;;;;;;;;;;;;;;;21.48;56.34;101550.94;2091207;28;898;-61
2021/09/08 00:44:50;;;;;;;;;;;;;;;21.49;55.81;101551.81;2091022;28;1115;-61
2021/09/08 00:45:51;;;;;;;;;;;;;;;21.48;55.79;101544.69;2091262;28;862;-61
2021/09/08 00:46:51;;;;;;;;;;;;;;;21.48;55.88;101542.84;2091327;28;882;-61
2021/09/08 00:47:51;;;;;;;;;;;;;;;21.46;55.98;101544.69;2091204;28;1403;-61
2021/09/08 00:48:51;;;;;;;;;;;;;;;21.47;56.09;101540.22;2091246;28;1938;-60
2021/09/08 00:49:52;;;;;;;;;;;;;;;21.47;55.74;101538.38;2091009;28;780;-61
2021/09/08 00:50:52;;;;;;;;;;;;;;;21.48;55.79;101540.16;2091193;28;1207;-60
2021/09/08 00:51:53;;;;;;;;;;;;;;;21.48;55.75;101539.28;2091301;28;772;-60
2021/09/08 00:52:53;;;;;;;;;;;;;;;21.45;55.78;101534.84;2091023;28;810;-61
2021/09/08 00:53:55;;;;;;;;;;;;;;;21.47;56.70;101542.91;2091265;28;1082;-61
2021/09/08 00:54:55;;;;;;;;;;;;;;;21.48;56.57;101541.97;2091338;28;795;-61
2021/09/08 00:55:56;;;;;;;;;;;;;;;21.47;55.95;101545.59;2091218;28;969;-61
2021/09/08 00:56:57;;;;;;;;;;;;;;;21.46;56.17;101543.81;2091293;28;973;-61
2021/09/08 00:57:58;;;;;;;;;;;;;;;21.46;56.37;101541.13;2091101;28;820;-61
2021/09/08 00:58:58;;;;;;;;;;;;;;;21.47;56.14;101543.78;2090970;28;786;-61
2021/09/08 00:59:58;;;;;;;;;;;;;;;21.49;56.37;101543.72;2091204;28;1001;-61
2021/09/08 01:00:58;;;;;;;;;;;;;;;21.47;56.06;101542.91;2091193;28;976;-61
2021/09/08 01:02:00;;;;;;;;;;;;;;;21.45;56.60;101545.63;2091162;28;1083;-60
2021/09/08 01:03:00;;;;;;;;;;;;;;;21.47;56.29;101540.22;2091237;28;818;-60
2021/09/08 01:04:00;;;;;;;;;;;;;;;21.46;56.69;101544.69;2090964;28;1486;-61
2021/09/08 01:05:01;;;;;;;;;;;;;;;21.47;56.25;101545.59;2091170;28;977;-60
2021/09/08 01:06:01;;;;;;;;;;;;;;;21.48;56.02;101541.97;2091140;28;834;-61
2021/09/08 01:07:02;;;;;;;;;;;;;;;21.46;56.30;101533.91;2090962;28;1041;-61
2021/09/08 01:08:02;;;;;;;;;;;;;;;21.46;55.70;101544.69;2091010;28;1416;-61
2021/09/08 01:09:04;;;;;;;;;;;;;;;21.48;55.92;101539.28;2091185;28;1975;-61
2021/09/08 01:10:04;;;;;;;;;;;;;;;21.48;55.92;101537.47;2091096;28;1047;-61
2021/09/08 01:11:05;;;;;;;;;;;;;;;21.46;55.98;101533.91;2091208;28;1104;-60
2021/09/08 01:12:06;;;;;;;;;;;;;;;21.46;56.00;101539.31;2091173;28;843;-61
2021/09/08 01:13:06;;;;;;;;;;;;;;;21.46;56.24;101536.63;2091208;28;1156;-61
2021/09/08 01:14:07;;;;;;;;;;;;;;;21.46;55.95;101538.44;2091162;28;989;-61
2021/09/08 01:15:08;;;;;;;;;;;;;;;21.45;56.66;101537.53;2091025;28;795;-61
2021/09/08 01:16:08;;;;;;;;;;;;;;;21.47;56.26;101538.38;2091406;28;862;-61
2021/09/08 01:17:08;;;;;;;;;;;;;;;21.47;56.28;101530.28;2092685;28;851;-60
2021/09/08 01:18:08;;;;;;;;;;;;;;;21.46;55.92;101542.00;2092617;28;1036;-61
2021/09/08 01:19:09;;;;;;;;;;;;;;;21.46;55.98;101539.31;2092631;28;1044;-61
2021/09/08 01:20:10;;;;;;;;;;;;;;;21.48;55.93;101537.47;2092666;28;697;-61
2021/09/08 01:21:10;;;;;;;;;;;;;;;21.47;55.84;101533.00;2092701;28;854;-61
2021/09/08 01:22:10;;;;;;;;;;;;;;;21.45;56.32;101537.53;2092578;28;1036;-61
2021/09/08 01:23:10;;;;;;;;;;;;;;;21.48;56.24;101533.91;2092428;28;823;-61
2021/09/08 01:24:11;;;;;;;;;;;;;;;21.46;56.01;101536.63;2092260;28;1205;-61
2021/09/08 01:25:14;;;;;;;;;;;;;;;21.47;56.68;101535.69;2092723;28;1033;-61
2021/09/08 01:26:15;;;;;;;;;;;;;;;21.46;56.24;101538.44;2092656;28;996;-61
2021/09/08 01:27:15;;;;;;;;;;;;;;;21.45;56.46;101533.97;2092611;28;764;-61
2021/09/08 01:28:15;;;;;;;;;;;;;;;21.45;55.78;101529.44;2092549;28;1000;-61
2021/09/08 01:29:15;;;;;;;;;;;;;;;21.47;56.06;101530.28;2092565;28;1945;-61
2021/09/08 01:30:19;;;;;;;;;;;;;;;21.47;56.46;101535.69;2092648;28;880;-61
2021/09/08 01:31:20;;;;;;;;;;;;;;;21.47;55.57;101529.44;2092274;28;849;-61
2021/09/08 01:32:20;;;;;;;;;;;;;;;21.47;56.00;101533.00;2092543;28;787;-61
2021/09/08 01:33:20;;;;;;;;;;;;;;;21.46;55.75;101528.53;2092597;28;831;-61
2021/09/08 01:34:21;;;;;;;;;;;;;;;21.47;55.70;101530.28;2092548;28;830;-61
2021/09/08 01:35:21;;;;;;;;;;;;;;;21.47;56.07;101526.72;2092612;28;933;-61
2021/09/08 01:36:21;;;;;;;;;;;;;;;21.46;55.71;101520.44;2092387;28;989;-61
2021/09/08 01:37:21;;;;;;;;;;;;;;;21.45;56.26;101520.50;2092263;28;1321;-61
2021/09/08 01:38:22;;;;;;;;;;;;;;;21.46;56.44;101520.44;2092513;28;755;-61
2021/09/08 01:39:23;;;;;;;;;;;;;;;21.47;55.84;101518.66;2092507;28;922;-61
2021/09/08 01:40:23;;;;;;;;;;;;;;;21.48;56.16;101515.91;2092444;28;1201;-61
2021/09/08 01:41:23;;;;;;;;;;;;;;;21.46;55.83;101523.13;2092495;28;829;-61
2021/09/08 01:42:23;;;;;;;;;;;;;;;21.47;56.49;101524.03;2092241;28;981;-61
2021/09/08 01:43:24;;;;;;;;;;;;;;;21.46;55.76;101516.88;2092572;28;933;-61
2021/09/08 01:44:24;;;;;;;;;;;;;;;21.47;56.50;101513.25;2092442;28;783;-61
2021/09/08 01:45:24;;;;;;;;;;;;;;;21.49;56.40;101514.06;2092369;28;807;-61
2021/09/08 01:46:25;;;;;;;;;;;;;;;21.47;55.94;101514.13;2092456;28;838;-61
2021/09/08 01:47:25;;;;;;;;;;;;;;;21.49;55.84;101514.06;2092356;28;1037;-61
2021/09/08 01:48:25;;;;;;;;;;;;;;;21.46;55.87;101509.66;2092452;28;1448;-62
2021/09/08 01:49:25;;;;;;;;;;;;;;;21.45;55.80;101502.50;2092259;28;1886;-61
2021/09/08 01:50:25;;;;;;;;;;;;;;;21.47;56.06;101507.88;2092414;28;863;-61
2021/09/08 01:51:25;;;;;;;;;;;;;;;21.46;56.07;101506.97;2092436;28;914;-61
2021/09/08 01:52:26;;;;;;;;;;;;;;;21.46;56.48;101509.66;2092319;28;985;-61
2021/09/08 01:53:28;;;;;;;;;;;;;;;21.45;56.50;101513.28;2092046;28;1200;-60
2021/09/08 01:54:28;;;;;;;;;;;;;;;21.46;55.78;101506.97;2092385;28;803;-61
2021/09/08 01:55:28;;;;;;;;;;;;;;;21.47;56.13;101508.72;2092308;28;965;-61
2021/09/08 01:56:28;;;;;;;;;;;;;;;21.46;56.17;101504.28;2092386;28;822;-61
2021/09/08 01:57:28;;;;;;;;;;;;;;;21.46;55.78;101509.66;2092315;28;987;-61
2021/09/08 01:58:30;;;;;;;;;;;;;;;21.45;55.93;101502.50;2092338;28;775;-61
2021/09/08 01:59:31;;;;;;;;;;;;;;;21.46;56.32;101506.09;2092313;28;790;-61
2021/09/08 02:00:31;;;;;;;;;;;;;;;21.45;56.06;101498.94;2083438;28;1324;-61
2021/09/08 02:01:31;;;;;;;;;;;;;;;21.47;55.85;101505.16;2083514;28;997;-61
2021/09/08 02:02:31;;;;;;;;;;;;;;;21.45;56.29;101499.81;2092308;28;846;-61
2021/09/08 02:03:31;;;;;;;;;;;;;;;21.46;56.45;101490.78;2092006;28;1052;-61
2021/09/08 02:04:31;;;;;;;;;;;;;;;21.46;56.66;101498.88;2092188;28;1403;-61
2021/09/08 02:05:32;;;;;;;;;;;;;;;21.45;56.42;101491.72;2092244;28;788;-61
2021/09/08 02:06:32;;;;;;;;;;;;;;;21.46;56.08;101496.19;2092244;28;879;-61
2021/09/08 02:07:32;;;;;;;;;;;;;;;21.46;56.33;101495.31;2092241;28;965;-61
2021/09/08 02:08:33;;;;;;;;;;;;;;;21.46;56.24;101496.19;2091985;28;1910;-61
2021/09/08 02:09:33;;;;;;;;;;;;;;;21.46;56.47;101495.31;2092254;28;921;-60
2021/09/08 02:10:34;;;;;;;;;;;;;;;21.46;55.77;101492.63;2091969;28;980;-61
2021/09/08 02:11:34;;;;;;;;;;;;;;;21.46;56.01;101488.09;2092154;28;965;-60
2021/09/08 02:12:34;;;;;;;;;;;;;;;21.46;56.16;101498.88;2092301;28;775;-61
2021/09/08 02:13:34;;;;;;;;;;;;;;;21.45;55.95;101493.53;2091867;28;775;-61
2021/09/08 02:14:34;;;;;;;;;;;;;;;21.45;56.32;101491.72;2092270;28;973;-61
2021/09/08 02:15:35;;;;;;;;;;;;;;;21.47;56.17;101491.69;2083360;28;763;-60
2021/09/08 02:16:35;;;;;;;;;;;;;;;21.47;55.99;101489.00;2074929;28;953;-61
2021/09/08 02:17:35;;;;;;;;;;;;;;;21.46;56.14;101485.41;2083214;28;800;-60
2021/09/08 02:18:35;;;;;;;;;;;;;;;21.45;56.33;101489.03;2092219;28;870;-61
2021/09/08 02:19:35;;;;;;;;;;;;;;;21.45;56.46;101491.72;2092157;28;763;-61
2021/09/08 02:20:35;;;;;;;;;;;;;;;21.46;56.26;101488.09;2092188;28;1032;-61
2021/09/08 02:21:35;;;;;;;;;;;;;;;21.46;56.26;101489.91;2092142;28;1187;-61
2021/09/08 02:22:36;;;;;;;;;;;;;;;21.47;55.80;101492.56;2091820;28;846;-61
2021/09/08 02:23:36;;;;;;;;;;;;;;;21.45;56.13;101497.09;2092125;28;1031;-61
2021/09/08 02:24:36;;;;;;;;;;;;;;;21.45;56.15;101493.53;2092252;28;1296;-61
2021/09/08 02:25:36;;;;;;;;;;;;;;;21.45;56.02;101489.03;2092118;28;965;-61
2021/09/08 02:26:36;;;;;;;;;;;;;;;21.46;55.83;101480.00;2092201;28;1048;-61
2021/09/08 02:27:36;;;;;;;;;;;;;;;21.45;56.14;101486.31;2091823;28;859;-61
2021/09/08 02:28:37;;;;;;;;;;;;;;;21.43;56.68;101485.47;2091985;28;1959;-60
2021/09/08 02:29:37;;;;;;;;;;;;;;;21.45;55.87;101483.63;2092008;28;1148;-61
2021/09/08 02:30:37;;;;;;;;;;;;;;;21.45;56.06;101483.63;2091854;28;866;-61
2021/09/08 02:31:37;;;;;;;;;;;;;;;21.46;55.73;101481.84;2091910;28;1028;-60
2021/09/08 02:32:37;;;;;;;;;;;;;;;21.44;56.15;101476.47;2092092;28;973;-61
2021/09/08 02:33:38;;;;;;;;;;;;;;;21.47;55.70;101489.88;2091884;28;824;-61
2021/09/08 02:34:38;;;;;;;;;;;;;;;21.43;56.49;101477.41;2083286;28;747;-61
2021/09/08 02:35:38;;;;;;;;;;;;;;;21.44;56.01;101481.84;2083375;28;748;-60
2021/09/08 02:36:38;;;;;;;;;;;;;;;21.46;55.79;101477.31;2083294;28;855;-61
2021/09/08 02:37:38;;;;;;;;;;;;;;;21.45;55.91;101480.06;2092058;28;763;-61
2021/09/08 02:38:38;;;;;;;;;;;;;;;21.46;56.29;101477.31;2092066;28;882;-61
2021/09/08 02:39:39;;;;;;;;;;;;;;;21.45;55.68;101472.84;2092109;28;838;-61
2021/09/08 02:40:39;;;;;;;;;;;;;;;21.44;55.71;101471.06;2091961;28;1403;-62
2021/09/08 02:41:39;;;;;;;;;;;;;;;21.46;56.45;101469.22;2082845;28;1196;-61
2021/09/08 02:42:39;;;;;;;;;;;;;;;21.43;56.25;101474.69;2083240;28;855;-60
2021/09/08 02:43:39;;;;;;;;;;;;;;;21.44;55.70;101468.38;2091978;28;1028;-60
2021/09/08 02:44:39;;;;;;;;;;;;;;;21.43;56.11;101466.63;2091850;28;779;-62
2021/09/08 02:45:40;;;;;;;;;;;;;;;21.45;56.07;101469.28;2092009;28;772;-61
2021/09/08 02:46:40;;;;;;;;;;;;;;;21.44;56.40;101467.50;2091951;28;859;-61
2021/09/08 02:47:40;;;;;;;;;;;;;;;21.45;55.78;101461.19;2091539;28;965;-60
2021/09/08 02:48:40;;;;;;;;;;;;;;;21.44;56.02;101464.81;2091963;28;1889;-61
2021/09/08 02:49:40;;;;;;;;;;;;;;;21.44;55.67;101454.91;2091903;28;787;-60
2021/09/08 02:50:40;;;;;;;;;;;;;;;21.43;56.71;101458.53;2091944;28;988;-61
2021/09/08 02:51:40;;;;;;;;;;;;;;;21.45;55.99;101445.91;2091858;28;817;-60
2021/09/08 02:52:41;;;;;;;;;;;;;;;21.43;55.90;101396.53;2091843;28;1028;-60
2021/09/08 02:53:41;;;;;;;;;;;;;;;21.42;56.31;101396.59;2083028;28;1364;-61
2021/09/08 02:54:41;;;;;;;;;;;;;;;21.43;55.94;101393.84;2083147;28;1028;-61
2021/09/08 02:55:41;;;;;;;;;;;;;;;21.45;55.84;101392.00;2091497;28;1120;-60
2021/09/08 02:56:41;;;;;;;;;;;;;;;21.46;56.55;101382.09;2091869;28;914;-60
2021/09/08 02:57:41;;;;;;;;;;;;;;;21.43;56.11;101369.59;2091831;28;977;-61
2021/09/08 02:58:41;;;;;;;;;;;;;;;21.44;55.96;101378.56;2091818;28;1063;-60
2021/09/08 02:59:42;;;;;;;;;;;;;;;21.46;56.77;101457.56;2091737;28;788;-60
2021/09/08 03:00:42;;;;;;;;;;;;;;;21.44;56.76;101471.06;2091720;28;780;-60
2021/09/08 03:01:42;;;;;;;;;;;;;;;21.44;55.78;101452.22;2091722;28;962;-60
2021/09/08 03:02:42;;;;;;;;;;;;;;;21.43;55.80;101438.78;2082953;28;806;-61
2021/09/08 03:03:43;;;;;;;;;;;;;;;21.43;56.12;101444.19;2082976;28;910;-61
2021/09/08 03:04:43;;;;;;;;;;;;;;;21.42;56.28;101437.91;2091801;28;870;-61
2021/09/08 03:05:43;;;;;;;;;;;;;;;21.45;56.67;101440.50;2091759;28;855;-61
2021/09/08 03:06:44;;;;;;;;;;;;;;;21.45;56.21;101445.03;2091619;28;774;-61
2021/09/08 03:07:44;;;;;;;;;;;;;;;21.45;55.99;101450.41;2091740;28;826;-61
2021/09/08 03:08:44;;;;;;;;;;;;;;;21.43;56.04;101455.84;2091501;28;1980;-61
2021/09/08 03:09:44;;;;;;;;;;;;;;;21.46;56.26;101449.50;2091723;28;854;-61
2021/09/08 03:10:46;;;;;;;;;;;;;;;21.45;56.00;101453.97;2091946;28;809;-61
2021/09/08 03:11:46;;;;;;;;;;;;;;;21.45;56.15;101440.50;2091616;28;796;-61
2021/09/08 03:12:46;;;;;;;;;;;;;;;21.41;55.82;101425.34;2091916;28;662;-61
2021/09/08 03:13:46;;;;;;;;;;;;;;;21.41;55.97;101422.66;2091811;28;791;-61
2021/09/08 03:14:46;;;;;;;;;;;;;;;21.43;56.84;101419.94;2091348;28;997;-61
2021/09/08 03:15:47;;;;;;;;;;;;;;;21.45;55.92;101418.06;2091738;28;973;-61
2021/09/08 03:16:47;;;;;;;;;;;;;;;21.44;55.93;101430.66;2091792;28;1377;-62
2021/09/08 03:17:47;;;;;;;;;;;;;;;21.43;56.42;101419.94;2082872;28;942;-61
2021/09/08 03:18:47;;;;;;;;;;;;;;;21.43;56.00;101426.19;2082913;28;823;-61
2021/09/08 03:19:47;;;;;;;;;;;;;;;21.43;56.31;101420.78;2091465;28;788;-61
2021/09/08 03:20:47;;;;;;;;;;;;;;;21.44;56.40;101427.94;2091689;28;1028;-61
2021/09/08 03:21:48;;;;;;;;;;;;;;;21.43;56.10;101423.50;2091657;28;1144;-61
2021/09/08 03:22:48;;;;;;;;;;;;;;;21.42;55.99;101415.47;2091588;28;914;-61
2021/09/08 03:23:48;;;;;;;;;;;;;;;21.42;56.33;101413.63;2091612;28;977;-61
2021/09/08 03:24:48;;;;;;;;;;;;;;;21.42;56.55;101419.03;2091579;28;784;-61
2021/09/08 03:25:48;;;;;;;;;;;;;;;21.44;56.42;101410.91;2091626;28;792;-61
2021/09/08 03:26:48;;;;;;;;;;;;;;;21.43;56.94;101410.00;2091665;28;993;-61
2021/09/08 03:27:49;;;;;;;;;;;;;;;21.43;56.56;101407.31;2091572;28;827;-61
2021/09/08 03:28:49;;;;;;;;;;;;;;;21.44;56.00;101409.09;2091552;28;1897;-61
2021/09/08 03:29:49;;;;;;;;;;;;;;;21.44;55.89;101401.00;2091473;28;977;-61
2021/09/08 03:30:49;;;;;;;;;;;;;;;21.46;56.28;101399.16;2091346;28;783;-61
2021/09/08 03:31:49;;;;;;;;;;;;;;;21.47;56.24;101400.91;2091621;28;1035;-61
2021/09/08 03:32:49;;;;;;;;;;;;;;;21.44;56.16;101401.00;2091603;28;1032;-61
2021/09/08 03:33:50;;;;;;;;;;;;;;;21.44;57.11;101401.00;2091506;28;800;-61
2021/09/08 03:34:50;;;;;;;;;;;;;;;21.44;56.89;101395.59;2091606;28;1388;-62
2021/09/08 03:35:50;;;;;;;;;;;;;;;21.44;57.05;101394.75;2091174;28;780;-62
2021/09/08 03:36:50;;;;;;;;;;;;;;;21.43;56.94;101393.84;2091624;28;866;-62
2021/09/08 03:37:50;;;;;;;;;;;;;;;21.42;56.18;101386.69;2091513;28;811;-64
2021/09/08 03:38:50;;;;;;;;;;;;;;;21.41;56.44;101394.81;2091305;28;894;-62
2021/09/08 03:39:53;;;;;;;;;;;;;;;21.41;57.09;101387.59;2091498;28;977;-62
2021/09/08 03:40:54;;;;;;;;;;;;;;;21.39;56.98;101388.59;2091475;28;1244;-61
2021/09/08 03:41:54;;;;;;;;;;;;;;;21.40;56.54;101380.44;2091563;28;1025;-62
2021/09/08 03:42:54;;;;;;;;;;;;;;;21.38;56.29;101384.13;2091637;28;1400;-62
2021/09/08 03:43:54;;;;;;;;;;;;;;;21.37;56.76;101391.31;2082573;28;780;-61
2021/09/08 03:44:54;;;;;;;;;;;;;;;21.36;57.26;101384.16;2082744;28;783;-62
2021/09/08 03:45:54;;;;;;;;;;;;;;;21.37;56.85;101393.16;2082650;28;946;-62
2021/09/08 03:46:54;;;;;;;;;;;;;;;21.39;56.34;101388.59;2082575;28;1184;-62
2021/09/08 03:47:55;;;;;;;;;;;;;;;21.39;57.11;101386.78;2091349;28;864;-61
2021/09/08 03:48:55;;;;;;;;;;;;;;;21.37;56.92;101388.63;2091430;28;1897;-62
2021/09/08 03:49:55;;;;;;;;;;;;;;;21.35;56.64;101389.59;2091180;28;914;-62
2021/09/08 03:50:55;;;;;;;;;;;;;;;21.36;57.29;101391.38;2091534;28;889;-61
2021/09/08 03:51:55;;;;;;;;;;;;;;;21.37;56.74;101391.31;2091458;28;858;-62
2021/09/08 03:52:55;;;;;;;;;;;;;;;21.37;57.06;101396.72;2091503;28;826;-61
2021/09/08 03:53:58;;;;;;;;;;;;;;;21.36;56.47;101391.38;2091511;28;969;-62
2021/09/08 03:54:59;;;;;;;;;;;;;;;21.35;56.37;101395.00;2091303;28;865;-61
2021/09/08 03:55:59;;;;;;;;;;;;;;;21.35;56.90;101395.88;2091450;28;898;-61
2021/09/08 03:56:59;;;;;;;;;;;;;;;21.37;56.59;101393.16;2082602;28;1587;-62
2021/09/08 03:57:59;;;;;;;;;;;;;;;21.34;56.46;101394.09;2082333;28;824;-61
2021/09/08 03:59:00;;;;;;;;;;;;;;;21.35;57.01;101382.38;2091446;28;862;-61
2021/09/08 04:00:00;;;;;;;;;;;;;;;21.33;56.58;101387.84;2091358;28;791;-62
2021/09/08 04:01:00;;;;;;;;;;;;;;;21.36;57.07;101394.06;2091445;28;984;-61
2021/09/08 04:02:00;;;;;;;;;;;;;;;21.37;57.22;101396.72;2082541;28;1350;-62
2021/09/08 04:03:00;;;;;;;;;;;;;;;21.74;55.33;101389.41;2082622;28;1385;-62
2021/09/08 04:04:00;;;;;;;;;;;;;;;21.96;54.99;101386.94;2082578;28;1022;-61
2021/09/08 04:05:01;;;;;;;;;;;;;;;22.08;54.38;101384.78;2082621;28;877;-62
2021/09/08 04:06:01;;;;;;;;;;;;;;;22.14;54.59;101384.59;2091068;28;912;-61
2021/09/08 04:07:01;;;;;;;;;;;;;;;22.21;54.01;101375.41;2091465;28;874;-61
2021/09/08 04:08:01;;;;;;;;;;;;;;;22.27;53.75;101377.91;2091283;28;1210;-61
2021/09/08 04:09:01;;;;;;;;;;;;;;;22.32;53.94;101378.63;2090786;28;1906;-61
2021/09/08 04:10:02;;;;;;;;;;;;;;;22.38;53.09;101385.63;2091302;28;1013;-61
2021/09/08 04:11:02;;;;;;;;;;;;;;;22.41;53.72;101382.84;2091360;28;798;-61
2021/09/08 04:12:03;;;;;;;;;;;;;;;22.45;53.77;101376.44;2091203;28;850;-61
2021/09/08 04:13:03;;;;;;;;;;;;;;;22.47;53.41;101371.88;2091410;28;1020;-61
2021/09/08 04:14:03;;;;;;;;;;;;;;;22.50;53.11;101378.97;2091338;28;878;-61
2021/09/08 04:15:03;;;;;;;;;;;;;;;22.52;52.67;101379.81;2091400;28;815;-61
2021/09/08 04:16:04;;;;;;;;;;;;;;;22.57;53.41;101383.25;2091402;28;787;-61
2021/09/08 04:17:04;;;;;;;;;;;;;;;22.58;52.78;101382.31;2091275;28;807;-61
2021/09/08 04:18:04;;;;;;;;;;;;;;;22.62;52.87;101381.28;2091401;28;1035;-61
2021/09/08 04:19:04;;;;;;;;;;;;;;;22.60;52.48;101377.75;2091441;28;802;-61
2021/09/08 04:20:05;;;;;;;;;;;;;;;22.63;52.68;101379.47;2091123;28;787;-61
2021/09/08 04:21:05;;;;;;;;;;;;;;;22.63;52.86;101380.34;2091336;28;1220;-61
2021/09/08 04:22:05;;;;;;;;;;;;;;;22.65;53.00;101375.78;2091284;28;952;-61
2021/09/08 04:23:05;;;;;;;;;;;;;;;22.66;52.50;101373.97;2091094;28;967;-61
2021/09/08 04:24:06;;;;;;;;;;;;;;;22.68;53.20;101368.50;2091255;28;1005;-61
2021/09/08 04:25:06;;;;;;;;;;;;;;;22.70;52.76;101362.09;2091193;28;1191;-61
2021/09/08 04:26:06;;;;;;;;;;;;;;;22.70;53.15;101363.94;2091302;28;984;-61
2021/09/08 04:27:06;;;;;;;;;;;;;;;22.69;52.83;101362.16;2091419;28;1031;-61
2021/09/08 04:28:06;;;;;;;;;;;;;;;22.70;52.20;101361.22;2091285;28;1032;-61
2021/09/08 04:29:06;;;;;;;;;;;;;;;22.69;52.87;101362.16;2091288;28;1906;-61
2021/09/08 04:30:07;;;;;;;;;;;;;;;22.71;52.74;101363.00;2091260;28;683;-61
2021/09/08 04:31:07;;;;;;;;;;;;;;;22.72;52.62;101362.06;2091021;28;839;-61
2021/09/08 04:32:07;;;;;;;;;;;;;;;22.72;52.44;101362.06;2091253;28;899;-61
2021/09/08 04:33:07;;;;;;;;;;;;;;;22.70;53.20;101367.50;2091401;28;950;-61
2021/09/08 04:34:08;;;;;;;;;;;;;;;22.72;52.47;101364.75;2091283;28;772;-61
2021/09/08 04:35:08;;;;;;;;;;;;;;;22.72;52.44;101357.53;2091326;28;870;-61
2021/09/08 04:36:09;;;;;;;;;;;;;;;22.73;52.73;101358.44;2091247;28;977;-61
2021/09/08 04:37:09;;;;;;;;;;;;;;;22.72;52.53;101349.44;2091313;28;965;-61
2021/09/08 04:38:09;;;;;;;;;;;;;;;22.72;52.48;101349.44;2091260;28;851;-61
2021/09/08 04:39:09;;;;;;;;;;;;;;;22.70;52.52;101345.91;2091224;28;957;-61
2021/09/08 04:40:10;;;;;;;;;;;;;;;22.74;53.01;101344.00;2091236;28;1202;-61
2021/09/08 04:41:10;;;;;;;;;;;;;;;22.75;52.30;101343.06;2091104;28;1416;-61
2021/09/08 04:42:10;;;;;;;;;;;;;;;22.75;52.45;101343.06;2091102;28;867;-61
2021/09/08 04:43:10;;;;;;;;;;;;;;;22.76;52.23;101347.53;2091319;28;969;-61
2021/09/08 04:44:10;;;;;;;;;;;;;;;22.75;53.23;101343.06;2090453;28;1015;-61
2021/09/08 04:45:11;;;;;;;;;;;;;;;22.76;52.74;101344.81;2090709;28;1126;-61
2021/09/08 04:46:11;;;;;;;;;;;;;;;22.74;52.30;101341.28;2091296;28;977;-61
2021/09/08 04:47:11;;;;;;;;;;;;;;;22.76;53.08;101344.81;2091291;28;791;-61
2021/09/08 04:48:11;;;;;;;;;;;;;;;22.75;52.64;101338.53;2091145;28;1094;-61
2021/09/08 04:49:11;;;;;;;;;;;;;;;22.77;52.95;101338.47;2090585;28;1894;-61
2021/09/08 04:50:11;;;;;;;;;;;;;;;22.78;52.72;101340.25;2090521;28;756;-61
2021/09/08 04:51:12;;;;;;;;;;;;;;;22.79;52.99;101344.72;2091724;28;977;-61
2021/09/08 04:52:12;;;;;;;;;;;;;;;22.77;52.90;101343.88;2092958;28;866;-61
2021/09/08 04:53:12;;;;;;;;;;;;;;;22.77;52.96;101341.19;2092750;28;787;-61
2021/09/08 04:54:13;;;;;;;;;;;;;;;22.79;52.75;101337.47;2092890;28;969;-61
2021/09/08 04:55:13;;;;;;;;;;;;;;;22.79;52.25;101339.31;2092849;28;914;-61
2021/09/08 04:56:13;;;;;;;;;;;;;;;22.79;52.90;101340.19;2092591;28;1001;-61
2021/09/08 04:57:13;;;;;;;;;;;;;;;22.80;52.09;101328.44;2092929;28;771;-61
2021/09/08 04:58:14;;;;;;;;;;;;;;;22.79;52.28;101333.91;2092730;28;1021;-61
2021/09/08 04:59:14;;;;;;;;;;;;;;;22.79;52.32;101332.06;2092973;28;922;-61
2021/09/08 05:00:14;;;;;;;;;;;;;;;22.81;52.18;101332.03;2092775;28;764;-61
2021/09/08 05:01:14;;;;;;;;;;;;;;;22.80;52.23;101333.84;2092800;28;985;-61
2021/09/08 05:02:14;;;;;;;;;;;;;;;22.80;52.95;101333.84;2092703;28;883;-61
2021/09/08 05:03:15;;;;;;;;;;;;;;;22.79;52.72;101333.91;2092666;28;819;-61
2021/09/08 05:04:15;;;;;;;;;;;;;;;22.81;52.21;101332.03;2092501;28;977;-61
2021/09/08 05:05:15;;;;;;;;;;;;;;;22.82;52.67;101343.72;2092805;28;1033;-61
2021/09/08 05:06:15;;;;;;;;;;;;;;;22.84;52.10;101333.72;2092912;28;709;-61
2021/09/08 05:07:15;;;;;;;;;;;;;;;22.84;52.34;101320.22;2092822;28;921;-61
2021/09/08 05:08:16;;;;;;;;;;;;;;;22.81;52.46;101326.63;2092662;28;1048;-61
2021/09/08 05:09:16;;;;;;;;;;;;;;;22.83;52.84;101327.47;2092407;28;1906;-61
2021/09/08 05:10:16;;;;;;;;;;;;;;;22.83;52.57;101321.16;2092649;28;981;-61
2021/09/08 05:11:16;;;;;;;;;;;;;;;22.83;52.47;101322.06;2092790;28;780;-61
2021/09/08 05:12:18;;;;;;;;;;;;;;;22.84;52.93;101325.63;2092245;28;1351;-61
2021/09/08 05:13:18;;;;;;;;;;;;;;;22.82;52.84;101319.41;2092741;28;811;-61
2021/09/08 05:14:18;;;;;;;;;;;;;;;22.83;52.24;101313.97;2092616;28;754;-61
2021/09/08 05:15:18;;;;;;;;;;;;;;;22.84;52.24;101314.81;2092745;28;744;-61
2021/09/08 05:16:18;;;;;;;;;;;;;;;22.84;52.63;101313.03;2092695;28;1056;-61